createdAt,value
2023-05-05T05:03:46.676Z,3.25
2023-05-05T05:08:48.361Z,3.63
2023-05-05T05:13:50.302Z,3.40
2023-05-05T05:18:51.724Z,3.20
2023-05-05T05:23:53.836Z,3.03
2023-05-05T05:28:55.640Z,3.33
2023-05-05T05:33:58.012Z,3.45
2023-05-05T05:38:59.779Z,3.60
2023-05-05T05:44:02.723Z,3.50
2023-05-05T05:49:04.745Z,4.53
2023-05-05T05:54:06.774Z,4.63
2023-05-05T05:59:10.101Z,4.90
2023-05-05T06:04:13.333Z,5.45
2023-05-05T06:09:15.117Z,4.90
2023-05-05T06:14:18.836Z,5.40
2023-05-05T06:19:22.190Z,4.93
2023-05-05T06:24:24.654Z,5.45
2023-05-05T06:29:26.628Z,5.30
2023-05-05T06:34:28.114Z,4.65
2023-05-05T06:39:29.563Z,4.70
2023-05-05T06:44:34.540Z,5.70
2023-05-05T06:49:36.460Z,5.15
2023-05-05T06:54:38.000Z,4.77
2023-05-05T06:59:39.484Z,4.47
2023-05-05T07:04:41.384Z,5.10
2023-05-05T07:09:45.121Z,5.15
2023-05-05T07:14:46.843Z,4.45
2023-05-05T07:19:48.561Z,4.97
2023-05-05T07:24:51.675Z,4.57
2023-05-05T07:29:53.211Z,4.07
2023-05-05T07:34:54.869Z,4.43
2023-05-05T07:39:56.425Z,3.65
2023-05-05T07:44:57.872Z,3.85
2023-05-05T07:49:59.439Z,3.72
2023-05-05T07:55:01.162Z,3.70
2023-05-05T08:00:03.654Z,5.30
2023-05-05T08:05:13.495Z,3.22
2023-05-05T08:10:15.098Z,3.92
2023-05-05T08:15:16.628Z,3.90
2023-05-05T08:20:19.898Z,3.90
2023-05-05T08:25:21.502Z,4.50
2023-05-05T08:30:23.114Z,3.60
2023-05-05T08:35:24.708Z,4.00
2023-05-05T08:40:31.816Z,3.50
2023-05-05T08:45:33.504Z,3.30
2023-05-05T08:50:38.576Z,3.60
2023-05-05T08:55:48.853Z,3.63
2023-05-05T09:00:51.855Z,3.67
2023-05-05T09:05:53.784Z,3.25
2023-05-05T09:10:55.739Z,5.68
2023-05-05T09:16:00.670Z,3.40
2023-05-05T09:21:18.855Z,3.08
2023-05-05T09:26:20.969Z,2.80
2023-05-05T09:36:48.675Z,2.88
2023-05-05T09:41:50.159Z,2.75
2023-05-05T09:46:52.918Z,2.53
2023-05-05T09:51:54.899Z,4.32
2023-05-05T09:56:57.533Z,2.63
2023-05-05T10:02:11.940Z,2.85
2023-05-05T10:07:24.326Z,3.40
2023-05-05T10:12:27.393Z,2.83
2023-05-05T10:17:32.991Z,3.00
2023-05-05T10:22:35.354Z,2.97
2023-05-05T10:27:45.882Z,2.50
2023-05-05T10:33:04.134Z,3.08
2023-05-05T10:38:14.040Z,2.50
2023-05-05T10:43:15.707Z,2.53
2023-05-05T10:48:39.857Z,2.67
2023-05-05T10:54:06.977Z,2.13
2023-05-05T10:59:36.701Z,2.60
2023-05-05T11:04:38.258Z,2.03
2023-05-05T11:09:55.680Z,2.78
2023-05-05T11:15:31.033Z,2.80
2023-05-05T11:20:43.385Z,2.63
2023-05-05T11:25:45.236Z,2.50
2023-05-05T11:35:59.103Z,2.65
2023-05-05T11:41:10.926Z,2.55
2023-05-05T11:46:13.994Z,2.80
2023-05-05T11:51:17.138Z,2.47
2023-05-05T11:56:24.784Z,3.53
2023-05-05T12:01:26.630Z,2.15
2023-05-05T12:11:33.609Z,2.40
2023-05-05T12:16:35.220Z,2.90
2023-05-05T12:21:36.748Z,3.03
2023-05-05T12:26:38.248Z,2.45
2023-05-05T12:31:42.329Z,2.60
2023-05-05T12:36:44.362Z,2.60
2023-05-05T12:41:46.383Z,2.47
2023-05-05T12:46:49.053Z,2.72
2023-05-05T12:51:55.612Z,2.95
2023-05-05T12:56:57.269Z,3.00
2023-05-05T13:07:12.239Z,2.60
2023-05-05T13:12:14.822Z,2.90
2023-05-05T13:17:16.900Z,2.63
2023-05-05T13:22:18.401Z,2.85
2023-05-05T13:37:23.085Z,2.88
2023-05-05T13:47:26.118Z,2.90
2023-05-05T13:57:30.045Z,3.17
2023-05-05T14:07:33.193Z,2.75
2023-05-05T14:17:36.187Z,2.95
2023-05-05T14:27:39.640Z,2.83
2023-05-05T14:32:41.123Z,2.90
2023-05-05T14:37:42.589Z,3.05
2023-05-05T14:42:44.093Z,2.88
2023-05-05T14:47:45.624Z,2.80
2023-05-05T14:57:48.555Z,2.55
2023-05-05T15:02:50.127Z,2.40
2023-05-05T15:12:53.104Z,2.53
2023-05-05T15:22:56.186Z,2.60
2023-05-05T15:33:00.457Z,3.05
2023-05-05T15:38:03.449Z,2.58
2023-05-05T15:43:05.235Z,2.70
2023-05-05T15:48:07.468Z,2.65
2023-05-05T15:53:08.935Z,3.42
2023-05-05T15:58:10.600Z,2.40
2023-05-05T16:08:13.776Z,2.40
2023-05-05T16:23:18.704Z,2.33
2023-05-05T16:28:20.166Z,2.30
2023-05-05T16:33:22.606Z,2.85
2023-05-05T16:38:24.161Z,2.45
2023-05-05T16:43:25.736Z,2.22
2023-05-05T16:48:27.338Z,2.75
2023-05-05T16:53:29.035Z,2.55
2023-05-05T16:58:30.492Z,2.45
2023-05-05T17:03:32.042Z,2.58
2023-05-05T17:08:33.521Z,2.60
2023-05-05T17:14:00.572Z,3.15
2023-05-05T17:19:02.097Z,3.25
2023-05-05T17:24:03.767Z,3.60
2023-05-05T17:29:05.367Z,3.78
2023-05-05T17:34:06.856Z,2.75
2023-05-05T17:39:10.365Z,4.00
2023-05-05T17:44:11.792Z,3.20
2023-05-05T17:49:13.240Z,3.10
2023-05-05T17:54:14.735Z,3.20
2023-05-05T17:59:16.197Z,3.92
2023-05-05T18:04:17.682Z,3.17
2023-05-05T18:09:20.602Z,3.38
2023-05-05T18:14:25.036Z,3.17
2023-05-05T18:19:26.699Z,2.70
2023-05-05T18:24:28.348Z,3.38
2023-05-05T18:29:29.901Z,3.20
2023-05-05T18:34:31.787Z,3.15
2023-05-05T18:39:33.307Z,2.88
2023-05-05T18:44:35.548Z,2.55
2023-05-05T18:49:37.422Z,2.55
2023-05-05T18:54:38.881Z,3.50
2023-05-05T18:59:40.460Z,3.40
2023-05-05T19:04:42.177Z,3.10
2023-05-05T19:09:43.646Z,3.25
2023-05-05T19:14:45.312Z,3.78
2023-05-05T19:19:46.769Z,3.20
2023-05-05T19:24:48.308Z,3.47
2023-05-05T19:29:52.251Z,3.78
2023-05-05T19:34:54.403Z,3.78
2023-05-05T19:39:56.377Z,3.67
2023-05-05T19:44:58.118Z,3.30
2023-05-05T19:49:59.669Z,3.40
2023-05-05T19:55:01.560Z,3.50
2023-05-05T20:00:03.707Z,3.53
2023-05-05T20:05:06.311Z,4.03
2023-05-05T20:10:09.042Z,4.10
2023-05-05T20:15:11.388Z,3.80
2023-05-05T20:20:16.956Z,3.85
2023-05-05T20:25:18.588Z,3.83
2023-05-05T20:30:20.392Z,4.07
2023-05-05T20:35:21.892Z,4.20
2023-05-05T20:40:23.330Z,3.97
2023-05-05T20:45:25.645Z,3.60
2023-05-05T20:55:28.579Z,4.47
2023-05-05T21:00:30.116Z,3.90
2023-05-05T21:05:31.740Z,4.27
2023-05-05T21:10:33.678Z,4.15
2023-05-05T21:15:38.356Z,4.72
2023-05-05T21:20:39.817Z,4.63
2023-05-05T21:25:41.393Z,4.03
2023-05-05T21:30:42.857Z,4.23
2023-05-05T21:35:44.322Z,3.90
2023-05-05T21:40:45.906Z,3.90
2023-05-05T21:45:47.368Z,4.25
2023-05-05T21:50:48.880Z,3.90
2023-05-05T21:55:50.481Z,4.00
